Time;durP1;ratioP1;P1;durP2;ratioP2;P2;SDS_P1;SDS_P2;PMS_P1;PMS_P2;Temp;Humidity;BMP_temperature;BMP_pressure;BME280_temperature;BME280_humidity;BME280_pressure;Samples;Min_cycle;Max_cycle;Signal;HPM_P1;HPM_P2
2022/04/07 00:00:05;;;;;;;2.20;1.55;;;;;;;;;;5027580;28;20154;-73
2022/04/07 00:02:31;;;;;;;6.18;2.00;;;;;;;;;;5013485;28;20077;-73
2022/04/07 00:04:57;;;;;;;1.90;1.60;;;;;;;;;;5011090;28;20469;-73
2022/04/07 00:07:22;;;;;;;2.85;1.48;;;;;;;;;;5011054;28;20037;-72
2022/04/07 00:09:48;;;;;;;3.00;2.03;;;;;;;;;;5027267;28;20030;-72
2022/04/07 00:12:13;;;;;;;1.90;1.30;;;;;;;;;;5012291;28;20041;-73
2022/04/07 00:14:39;;;;;;;3.92;1.40;;;;;;;;;;5027301;28;20401;-73
2022/04/07 00:17:05;;;;;;;3.83;1.60;;;;;;;;;;5027199;28;20053;-73
2022/04/07 00:19:31;;;;;;;2.05;1.85;;;;;;;;;;5026988;28;20100;-73
2022/04/07 00:21:57;;;;;;;2.97;1.58;;;;;;;;;;5027044;28;20040;-73
2022/04/07 00:24:23;;;;;;;2.63;1.55;;;;;;;;;;5026679;28;20673;-72
2022/04/07 00:26:49;;;;;;;4.78;1.80;;;;;;;;;;5010646;28;20037;-72
2022/04/07 00:29:16;;;;;;;2.27;1.57;;;;;;;;;;5026806;28;20022;-72
2022/04/07 00:31:42;;;;;;;2.67;1.70;;;;;;;;;;5026861;28;20449;-73
2022/04/07 00:34:07;;;;;;;1.92;1.60;;;;;;;;;;5026821;28;20025;-73
2022/04/07 00:36:33;;;;;;;1.55;1.20;;;;;;;;;;5026654;28;20583;-73
2022/04/07 00:38:59;;;;;;;3.58;1.70;;;;;;;;;;5026784;28;20398;-74
2022/04/07 00:41:25;;;;;;;2.87;1.80;;;;;;;;;;5026540;28;20021;-73
2022/04/07 00:43:51;;;;;;;7.10;1.60;;;;;;;;;;5026814;28;20030;-73
2022/04/07 00:46:18;;;;;;;2.42;1.90;;;;;;;;;;5026767;28;20030;-73
2022/04/07 00:48:43;;;;;;;7.87;2.63;;;;;;;;;;5009828;28;20095;-73
2022/04/07 00:51:09;;;;;;;2.65;1.80;;;;;;;;;;5026488;28;20033;-73
2022/04/07 00:53:35;;;;;;;1.95;1.75;;;;;;;;;;5026238;28;20064;-73
2022/04/07 00:56:01;;;;;;;2.40;1.50;;;;;;;;;;5026252;28;20025;-73
2022/04/07 00:58:29;;;;;;;2.67;1.40;;;;;;;;;;5026243;28;20044;-73
2022/04/07 01:00:56;;;;;;;1.75;1.65;;;;;;;;;;5010147;28;20034;-73
2022/04/07 01:03:22;;;;;;;1.60;1.50;;;;;;;;;;5026362;28;20041;-73
2022/04/07 01:05:49;;;;;;;1.67;1.43;;;;;;;;;;5026145;28;20315;-74
2022/04/07 01:08:15;;;;;;;1.52;1.42;;;;;;;;;;5026500;28;20030;-74
2022/04/07 01:10:42;;;;;;;2.20;1.40;;;;;;;;;;5025876;28;20442;-73
2022/04/07 01:13:08;;;;;;;3.37;1.20;;;;;;;;;;5026122;28;20084;-73
2022/04/07 01:15:34;;;;;;;2.27;1.40;;;;;;;;;;5025865;28;20037;-74
2022/04/07 01:18:00;;;;;;;4.32;1.42;;;;;;;;;;5025912;28;20125;-73
2022/04/07 01:20:26;;;;;;;2.47;1.10;;;;;;;;;;5025465;28;20139;-73
2022/04/07 01:22:53;;;;;;;2.53;1.30;;;;;;;;;;5026008;28;20219;-74
2022/04/07 01:25:18;;;;;;;4.00;1.40;;;;;;;;;;5026063;28;20037;-73
2022/04/07 01:27:49;;;;;;;2.08;1.45;;;;;;;;;;5025598;28;20529;-73
2022/04/07 01:30:15;;;;;;;1.92;1.50;;;;;;;;;;5025852;28;20030;-73
2022/04/07 01:32:46;;;;;;;1.40;1.30;;;;;;;;;;5025639;28;20034;-73
2022/04/07 01:35:13;;;;;;;2.92;1.38;;;;;;;;;;5025975;28;20026;-73
2022/04/07 01:37:42;;;;;;;3.00;1.97;;;;;;;;;;4992623;28;20026;-73
2022/04/07 01:40:10;;;;;;;4.35;2.50;;;;;;;;;;5025784;28;20397;-73
2022/04/07 01:42:37;;;;;;;3.53;1.70;;;;;;;;;;5025275;28;20042;-73
2022/04/07 01:45:05;;;;;;;1.87;1.60;;;;;;;;;;5025549;28;20605;-74
2022/04/07 01:47:34;;;;;;;4.70;1.27;;;;;;;;;;5025324;28;20412;-72
2022/04/07 01:50:09;;;;;;;8.77;1.97;;;;;;;;;;5025799;28;20436;-73
2022/04/07 01:52:36;;;;;;;2.17;1.37;;;;;;;;;;5009254;28;20045;-73
2022/04/07 01:55:03;;;;;;;7.27;1.87;;;;;;;;;;5025880;28;20034;-73
2022/04/07 01:57:29;;;;;;;1.80;1.63;;;;;;;;;;5010304;28;20048;-73
2022/04/07 01:59:55;;;;;;;2.00;1.40;;;;;;;;;;5025500;28;20034;-73
2022/04/07 02:02:25;;;;;;;4.38;1.80;;;;;;;;;;5025340;28;20022;-73
2022/04/07 02:04:59;;;;;;;2.08;1.40;;;;;;;;;;5025021;28;20469;-72
2022/04/07 02:07:29;;;;;;;3.07;1.17;;;;;;;;;;5025030;28;20060;-74
2022/04/07 02:09:56;;;;;;;;;;;;;;;;;;5010463;28;20033;-74
2022/04/07 02:12:22;;;;;;;1.50;1.40;;;;;;;;;;5008695;28;19917;-73
2022/04/07 02:14:49;;;;;;;1.47;1.23;;;;;;;;;;5010136;28;20100;-73
2022/04/07 02:17:20;;;;;;;1.53;1.40;;;;;;;;;;5025241;28;20061;-73
2022/04/07 02:19:51;;;;;;;2.05;1.48;;;;;;;;;;5024635;28;20404;-73
2022/04/07 02:22:17;;;;;;;3.77;1.53;;;;;;;;;;5024246;28;20033;-73
2022/04/07 02:24:43;;;;;;;2.90;1.97;;;;;;;;;;5024775;28;20026;-72
2022/04/07 02:27:09;;;;;;;2.07;1.20;;;;;;;;;;5025145;28;20127;-73
2022/04/07 02:29:35;;;;;;;2.70;1.20;;;;;;;;;;5024987;28;20072;-73
2022/04/07 02:32:01;;;;;;;1.77;1.30;;;;;;;;;;4991701;28;20026;-72
2022/04/07 02:34:27;;;;;;;3.73;1.73;;;;;;;;;;5024868;28;20018;-73
2022/04/07 02:36:52;;;;;;;3.10;2.70;;;;;;;;;;5024832;28;20581;-72
2022/04/07 02:39:18;;;;;;;2.22;1.23;;;;;;;;;;5025096;28;20393;-72
2022/04/07 02:41:43;;;;;;;3.97;1.53;;;;;;;;;;5024912;28;20053;-73
2022/04/07 02:44:09;;;;;;;5.17;1.77;;;;;;;;;;5025015;28;20033;-73
2022/04/07 02:46:35;;;;;;;6.53;1.70;;;;;;;;;;5024920;28;20025;-73
2022/04/07 02:49:01;;;;;;;4.40;1.80;;;;;;;;;;5025829;28;20036;-71
2022/04/07 02:51:31;;;;;;;1.50;1.40;;;;;;;;;;5028387;28;20053;-72
2022/04/07 02:53:59;;;;;;;3.40;1.27;;;;;;;;;;5028637;28;20441;-72
2022/04/07 02:56:26;;;;;;;14.80;2.70;;;;;;;;;;5028500;28;20030;-74
2022/04/07 02:58:51;;;;;;;3.83;1.60;;;;;;;;;;5025303;28;20507;-73
2022/04/07 03:01:18;;;;;;;1.77;1.37;;;;;;;;;;5025123;28;20022;-73
2022/04/07 03:03:44;;;;;;;3.07;1.67;;;;;;;;;;5024967;28;20034;-73
2022/04/07 03:06:10;;;;;;;3.13;1.60;;;;;;;;;;4992222;28;20038;-73
2022/04/07 03:08:35;;;;;;;3.63;1.57;;;;;;;;;;5024635;28;20567;-73
2022/04/07 03:11:02;;;;;;;2.47;1.80;;;;;;;;;;5024664;28;20034;-73
2022/04/07 03:13:28;;;;;;;5.57;1.70;;;;;;;;;;5024550;28;20116;-74
2022/04/07 03:15:54;;;;;;;3.37;1.77;;;;;;;;;;5007869;28;20114;-73
2022/04/07 03:18:20;;;;;;;5.17;1.90;;;;;;;;;;5007908;28;20034;-74
2022/04/07 03:20:45;;;;;;;2.40;1.20;;;;;;;;;;5008226;28;20091;-74
2022/04/07 03:23:12;;;;;;;1.43;1.30;;;;;;;;;;5024308;28;20124;-73
2022/04/07 03:25:38;;;;;;;3.13;1.30;;;;;;;;;;5024089;28;20795;-73
2022/04/07 03:28:05;;;;;;;2.87;1.60;;;;;;;;;;5024501;28;20116;-73
2022/04/07 03:30:30;;;;;;;2.07;1.50;;;;;;;;;;5024449;28;20036;-73
2022/04/07 03:32:56;;;;;;;3.10;1.63;;;;;;;;;;5009386;28;20033;-72
2022/04/07 03:35:22;;;;;;;2.57;1.67;;;;;;;;;;5028180;28;20512;-72
2022/04/07 03:37:48;;;;;;;3.67;1.50;;;;;;;;;;5027772;28;20475;-73
2022/04/07 03:40:14;;;;;;;1.40;1.30;;;;;;;;;;5011430;28;20085;-72
2022/04/07 03:42:39;;;;;;;3.73;1.23;;;;;;;;;;5027736;28;20171;-73
2022/04/07 03:45:05;;;;;;;9.07;2.10;;;;;;;;;;5027952;28;20064;-72
2022/04/07 03:47:31;;;;;;;4.10;1.50;;;;;;;;;;5027728;28;20034;-73
2022/04/07 03:49:57;;;;;;;3.37;1.43;;;;;;;;;;5011537;28;20068;-72
2022/04/07 03:52:23;;;;;;;1.90;1.63;;;;;;;;;;5011721;28;20040;-72
2022/04/07 03:54:49;;;;;;;2.30;1.60;;;;;;;;;;5030009;28;20055;-73
2022/04/07 03:57:15;;;;;;;4.87;1.90;;;;;;;;;;5034567;28;20030;-73
2022/04/07 03:59:42;;;;;;;1.60;1.30;;;;;;;;;;5033933;28;20037;-74
2022/04/07 04:02:10;;;;;;;1.33;1.23;;;;;;;;;;5028936;28;20029;-74
2022/04/07 04:04:36;;;;;;;1.87;1.70;;;;;;;;;;5027279;28;20029;-73
2022/04/07 04:07:04;;;;;;;3.33;1.97;;;;;;;;;;5012358;28;20042;-73
2022/04/07 04:09:29;;;;;;;5.97;1.70;;;;;;;;;;5027537;28;20083;-74
2022/04/07 04:11:55;;;;;;;8.00;1.43;;;;;;;;;;5027418;28;20108;-73
2022/04/07 04:14:21;;;;;;;1.67;1.30;;;;;;;;;;5027448;28;20045;-74
2022/04/07 04:16:46;;;;;;;3.33;1.30;;;;;;;;;;5027355;28;20033;-73
2022/04/07 04:19:12;;;;;;;4.60;1.73;;;;;;;;;;5011460;28;20065;-73
2022/04/07 04:21:38;;;;;;;6.23;2.07;;;;;;;;;;5027005;28;20033;-73
2022/04/07 04:24:04;;;;;;;3.37;1.60;;;;;;;;;;5010306;28;20137;-73
2022/04/07 04:26:29;;;;;;;4.67;1.87;;;;;;;;;;5027252;28;20030;-73
2022/04/07 04:28:55;;;;;;;1.90;1.40;;;;;;;;;;5026825;28;20038;-72
2022/04/07 04:31:24;;;;;;;4.00;1.50;;;;;;;;;;5010282;28;20022;-73
2022/04/07 04:33:51;;;;;;;1.40;1.30;;;;;;;;;;5026864;28;20033;-73
2022/04/07 04:36:17;;;;;;;2.13;1.90;;;;;;;;;;5027123;28;20030;-74
2022/04/07 04:38:43;;;;;;;4.90;2.03;;;;;;;;;;5026608;28;20038;-74
2022/04/07 04:41:09;;;;;;;3.27;1.80;;;;;;;;;;5027203;28;20427;-73
2022/04/07 04:43:35;;;;;;;4.33;1.70;;;;;;;;;;5011336;28;20173;-73
2022/04/07 04:46:02;;;;;;;3.40;2.03;;;;;;;;;;5025927;28;20474;-73
2022/04/07 04:48:28;;;;;;;8.17;2.00;;;;;;;;;;5010657;28;20054;-73
2022/04/07 04:50:58;;;;;;;2.50;1.97;;;;;;;;;;5026718;28;20036;-73
2022/04/07 04:53:24;;;;;;;6.30;2.30;;;;;;;;;;5026649;28;20040;-73
2022/04/07 04:55:51;;;;;;;3.47;1.90;;;;;;;;;;5026471;28;20025;-74
2022/04/07 04:58:17;;;;;;;2.90;1.90;;;;;;;;;;5011073;28;20057;-73
2022/04/07 05:00:43;;;;;;;4.50;2.37;;;;;;;;;;4993195;28;20500;-73
2022/04/07 05:03:09;;;;;;;2.43;1.60;;;;;;;;;;5026331;28;20116;-73
2022/04/07 05:05:35;;;;;;;1.40;1.30;;;;;;;;;;5026489;28;20398;-73
2022/04/07 05:08:02;;;;;;;2.27;1.73;;;;;;;;;;5019590;28;20033;-73
2022/04/07 05:10:27;;;;;;;2.07;1.70;;;;;;;;;;5022059;28;20065;-74
2022/04/07 05:12:55;;;;;;;2.13;1.20;;;;;;;;;;5008771;28;20065;-72
2022/04/07 05:15:22;;;;;;;2.30;1.73;;;;;;;;;;5009264;28;20026;-73
2022/04/07 05:17:52;;;;;;;1.50;1.27;;;;;;;;;;5024989;28;20466;-74
2022/04/07 05:20:20;;;;;;;3.27;1.80;;;;;;;;;;4990856;28;20689;-73
2022/04/07 05:22:46;;;;;;;1.13;1.00;;;;;;;;;;5003758;28;20045;-74
2022/04/07 05:25:13;;;;;;;2.37;1.70;;;;;;;;;;5022639;28;20474;-74
2022/04/07 05:27:39;;;;;;;2.23;1.40;;;;;;;;;;5011588;28;20079;-73
2022/04/07 05:30:07;;;;;;;4.13;2.17;;;;;;;;;;4999279;28;20041;-73
2022/04/07 05:32:34;;;;;;;2.23;1.57;;;;;;;;;;5018939;28;20157;-73
2022/04/07 05:35:01;;;;;;;2.80;1.80;;;;;;;;;;4993630;28;20498;-73
2022/04/07 05:37:26;;;;;;;8.53;2.20;;;;;;;;;;4993605;28;20462;-73
2022/04/07 05:39:52;;;;;;;3.10;1.80;;;;;;;;;;5001658;28;20073;-74
2022/04/07 05:42:18;;;;;;;3.90;1.30;;;;;;;;;;5004824;28;20117;-74
2022/04/07 05:44:44;;;;;;;3.10;2.10;;;;;;;;;;5012859;28;20265;-74
2022/04/07 05:47:10;;;;;;;3.40;1.52;;;;;;;;;;5014065;28;20030;-73
2022/04/07 05:49:36;;;;;;;2.50;1.40;;;;;;;;;;5015401;28;20022;-74
2022/04/07 05:52:04;;;;;;;1.45;1.13;;;;;;;;;;5015456;28;20021;-76
2022/04/07 05:54:37;;;;;;;2.53;1.33;;;;;;;;;;5020892;28;20017;-75
2022/04/07 05:57:04;;;;;;;1.65;1.52;;;;;;;;;;5000287;28;20065;-74
2022/04/07 05:59:30;;;;;;;3.35;1.10;;;;;;;;;;5012339;28;20037;-73
2022/04/07 06:01:57;;;;;;;1.87;1.30;;;;;;;;;;5012343;28;20096;-74
2022/04/07 06:04:25;;;;;;;3.25;1.63;;;;;;;;;;5002175;28;20392;-74
2022/04/07 06:06:51;;;;;;;1.55;1.05;;;;;;;;;;5004134;28;20042;-74
2022/04/07 06:09:20;;;;;;;4.63;1.17;;;;;;;;;;5014883;28;20316;-73
2022/04/07 06:11:46;;;;;;;2.80;1.33;;;;;;;;;;5018027;28;20446;-75
2022/04/07 06:14:12;;;;;;;1.00;1.00;;;;;;;;;;5000444;28;20042;-74
2022/04/07 06:16:38;;;;;;;1.23;1.13;;;;;;;;;;5004725;28;20116;-73
2022/04/07 06:19:05;;;;;;;7.45;1.70;;;;;;;;;;5008032;28;20053;-73
2022/04/07 06:21:33;;;;;;;3.25;1.30;;;;;;;;;;5022348;28;20053;-73
2022/04/07 06:24:03;;;;;;;1.45;1.10;;;;;;;;;;5006676;28;20141;-74
2022/04/07 06:26:29;;;;;;;3.10;1.27;;;;;;;;;;5018907;28;20523;-72
2022/04/07 06:28:55;;;;;;;2.70;1.27;;;;;;;;;;5009464;28;20030;-73
2022/04/07 06:31:25;;;;;;;1.52;1.10;;;;;;;;;;5011853;28;20059;-71
2022/04/07 06:33:52;;;;;;;1.75;1.20;;;;;;;;;;5002434;28;20041;-72
2022/04/07 06:36:24;;;;;;;4.45;1.58;;;;;;;;;;4991498;28;20600;-73
2022/04/07 06:38:50;;;;;;;2.60;0.98;;;;;;;;;;4991250;28;20030;-73
2022/04/07 06:41:17;;;;;;;3.65;1.25;;;;;;;;;;4990580;28;20475;-73
2022/04/07 06:43:45;;;;;;;1.90;1.00;;;;;;;;;;4991294;28;20447;-72
2022/04/07 06:46:13;;;;;;;1.67;0.98;;;;;;;;;;4995219;28;20458;-73
2022/04/07 06:48:43;;;;;;;5.22;1.20;;;;;;;;;;5007275;28;20038;-72
2022/04/07 06:51:09;;;;;;;3.00;1.10;;;;;;;;;;5006261;28;20149;-74
2022/04/07 06:53:39;;;;;;;1.63;1.00;;;;;;;;;;4998069;28;20585;-74
2022/04/07 06:56:08;;;;;;;1.17;0.98;;;;;;;;;;5005685;28;20029;-73
2022/04/07 06:58:36;;;;;;;2.00;1.10;;;;;;;;;;4989395;28;20041;-73
2022/04/07 07:01:02;;;;;;;1.95;1.00;;;;;;;;;;4995318;28;20037;-73
2022/04/07 07:03:30;;;;;;;1.42;1.33;;;;;;;;;;4999245;28;20407;-73
2022/04/07 07:05:59;;;;;;;1.60;1.00;;;;;;;;;;4991826;28;20038;-72
2022/04/07 07:08:27;;;;;;;1.02;0.93;;;;;;;;;;4990922;28;20442;-73
2022/04/07 07:10:53;;;;;;;0.88;0.60;;;;;;;;;;5012056;28;20125;-73
2022/04/07 07:13:23;;;;;;;0.50;0.50;;;;;;;;;;4992373;28;20692;-73
2022/04/07 07:15:50;;;;;;;0.57;0.57;;;;;;;;;;5012414;28;20033;-72
2022/04/07 07:18:16;;;;;;;1.80;0.60;;;;;;;;;;4988023;28;20082;-73
2022/04/07 07:20:45;;;;;;;1.30;0.70;;;;;;;;;;5014579;28;20042;-73
2022/04/07 07:23:16;;;;;;;0.60;0.60;;;;;;;;;;5011114;28;20036;-72
2022/04/07 07:25:43;;;;;;;4.40;0.70;;;;;;;;;;5008249;28;20068;-72
2022/04/07 07:28:09;;;;;;;2.00;0.93;;;;;;;;;;4989788;28;21173;-72
2022/04/07 07:30:35;;;;;;;3.92;0.98;;;;;;;;;;4993361;28;20152;-74
2022/04/07 07:33:02;;;;;;;1.42;0.80;;;;;;;;;;5010407;28;20085;-74
2022/04/07 07:35:28;;;;;;;0.68;0.43;;;;;;;;;;5009960;28;20041;-73
2022/04/07 07:37:56;;;;;;;4.18;0.60;;;;;;;;;;5004199;28;20761;-72
2022/04/07 07:40:26;;;;;;;0.68;0.68;;;;;;;;;;5009531;28;20462;-73
2022/04/07 07:43:00;;;;;;;1.80;0.75;;;;;;;;;;5005730;28;20038;-73
2022/04/07 07:45:34;;;;;;;1.35;0.52;;;;;;;;;;5005488;28;20462;-72
2022/04/07 07:48:04;;;;;;;0.50;0.40;;;;;;;;;;5004109;28;20105;-74
2022/04/07 07:50:32;;;;;;;0.50;0.50;;;;;;;;;;4996814;28;20040;-73
2022/04/07 07:52:58;;;;;;;1.65;0.57;;;;;;;;;;5012402;28;20037;-74
2022/04/07 07:55:24;;;;;;;0.50;0.50;;;;;;;;;;4999355;28;20474;-73
2022/04/07 07:57:50;;;;;;;1.20;0.70;;;;;;;;;;4992815;28;20514;-74
2022/04/07 08:00:17;;;;;;;0.60;0.60;;;;;;;;;;5017478;28;20042;-72
2022/04/07 08:02:43;;;;;;;4.00;0.95;;;;;;;;;;5003782;28;20165;-72
2022/04/07 08:05:13;;;;;;;1.65;0.60;;;;;;;;;;5017090;28;20048;-73
2022/04/07 08:07:41;;;;;;;2.45;0.60;;;;;;;;;;4994124;28;20068;-73
2022/04/07 08:10:10;;;;;;;2.67;0.70;;;;;;;;;;4990876;28;20168;-73
2022/04/07 08:12:36;;;;;;;2.47;0.82;;;;;;;;;;5006971;28;20410;-73
2022/04/07 08:15:03;;;;;;;0.63;0.50;;;;;;;;;;5009519;28;20057;-73
2022/04/07 08:17:29;;;;;;;0.95;0.60;;;;;;;;;;4973574;28;20430;-73
2022/04/07 08:19:56;;;;;;;1.20;0.50;;;;;;;;;;4989145;28;20046;-73
2022/04/07 08:22:22;;;;;;;4.30;2.20;;;;;;;;;;4992504;28;20041;-73
2022/04/07 08:24:57;;;;;;;2.13;0.93;;;;;;;;;;5007691;28;20083;-73
2022/04/07 08:27:24;;;;;;;6.57;3.03;;;;;;;;;;4990997;28;20399;-73
2022/04/07 08:29:50;;;;;;;2.55;0.70;;;;;;;;;;4998243;28;20057;-72
2022/04/07 08:32:16;;;;;;;0.40;0.40;;;;;;;;;;5005522;28;20045;-72
2022/04/07 08:34:43;;;;;;;4.88;0.88;;;;;;;;;;4989291;28;20042;-73
2022/04/07 08:37:09;;;;;;;2.42;0.70;;;;;;;;;;4991273;28;20067;-73
2022/04/07 08:39:35;;;;;;;1.73;0.70;;;;;;;;;;5011718;28;20056;-72
2022/04/07 08:42:05;;;;;;;1.88;0.50;;;;;;;;;;4999210;28;20059;-73
2022/04/07 08:44:34;;;;;;;0.68;0.43;;;;;;;;;;4997657;28;20458;-72
2022/04/07 08:47:00;;;;;;;26.48;4.15;;;;;;;;;;5004984;28;20040;-73
2022/04/07 08:49:31;;;;;;;0.82;0.70;;;;;;;;;;4996227;28;20286;-72
2022/04/07 08:51:58;;;;;;;0.50;0.50;;;;;;;;;;4994770;28;20405;-73
2022/04/07 08:54:24;;;;;;;1.15;0.57;;;;;;;;;;4995126;28;20124;-72
2022/04/07 08:56:51;;;;;;;1.00;0.80;;;;;;;;;;4994341;28;20180;-74
2022/04/07 08:59:17;;;;;;;1.73;0.90;;;;;;;;;;5008088;28;20323;-72
2022/04/07 09:01:44;;;;;;;1.25;1.02;;;;;;;;;;5007504;28;20091;-73
2022/04/07 09:04:17;;;;;;;0.73;0.57;;;;;;;;;;5007608;28;20526;-74
2022/04/07 09:06:46;;;;;;;1.38;0.98;;;;;;;;;;5007193;28;20127;-73
2022/04/07 09:09:18;;;;;;;1.27;0.70;;;;;;;;;;5004681;28;20084;-73
2022/04/07 09:11:45;;;;;;;5.20;0.98;;;;;;;;;;5003438;28;20042;-73
2022/04/07 09:14:15;;;;;;;3.05;0.80;;;;;;;;;;5009770;28;20029;-73
2022/04/07 09:16:41;;;;;;;1.42;0.70;;;;;;;;;;4995118;28;20649;-74
2022/04/07 09:19:09;;;;;;;3.17;0.80;;;;;;;;;;4992763;28;20058;-72
2022/04/07 09:21:38;;;;;;;4.40;0.73;;;;;;;;;;4996444;28;20041;-73
2022/04/07 09:24:11;;;;;;;1.67;1.00;;;;;;;;;;4991539;28;20045;-73
2022/04/07 09:26:43;;;;;;;1.23;0.50;;;;;;;;;;5003557;28;20518;-73
2022/04/07 09:29:18;;;;;;;11.82;2.05;;;;;;;;;;5002623;28;20077;-73
2022/04/07 09:31:54;;;;;;;1.88;0.60;;;;;;;;;;5006243;28;20038;-72
2022/04/07 09:34:33;;;;;;;0.63;0.52;;;;;;;;;;4994512;28;20475;-74
2022/04/07 09:37:04;;;;;;;3.00;1.30;;;;;;;;;;4992258;28;20045;-74
2022/04/07 09:39:34;;;;;;;0.73;0.50;;;;;;;;;;4989590;28;20486;-74
2022/04/07 09:42:20;;;;;;;1.00;0.68;;;;;;;;;;5005738;28;20047;-73
2022/04/07 09:44:51;;;;;;;0.75;0.52;;;;;;;;;;5007418;28;20042;-75
2022/04/07 09:47:24;;;;;;;3.17;1.17;;;;;;;;;;5002405;28;20202;-72
2022/04/07 09:49:51;;;;;;;0.95;0.77;;;;;;;;;;4991000;28;20061;-73
2022/04/07 09:52:21;;;;;;;1.60;0.88;;;;;;;;;;4992427;28;20671;-73
2022/04/07 09:54:56;;;;;;;1.85;0.75;;;;;;;;;;4992259;28;20038;-72
2022/04/07 09:57:25;;;;;;;7.95;0.68;;;;;;;;;;4999386;28;20036;-74
2022/04/07 09:59:54;;;;;;;5.63;0.60;;;;;;;;;;4985996;28;20021;-73
2022/04/07 10:02:21;;;;;;;0.73;0.50;;;;;;;;;;4995803;28;20049;-75
2022/04/07 10:04:53;;;;;;;2.67;0.50;;;;;;;;;;5005174;28;20038;-75
2022/04/07 10:07:19;;;;;;;;;;;;;;;;;;4974941;28;20052;-74
2022/04/07 10:09:46;;;;;;;0.63;0.40;;;;;;;;;;4989552;28;19921;-73
2022/04/07 10:12:13;;;;;;;3.28;0.90;;;;;;;;;;4990404;28;20570;-73
2022/04/07 10:14:42;;;;;;;4.10;0.50;;;;;;;;;;4990583;28;20080;-74
2022/04/07 10:17:14;;;;;;;1.73;0.60;;;;;;;;;;4988606;28;20165;-71
2022/04/07 10:19:53;;;;;;;0.30;0.30;;;;;;;;;;4974769;28;20100;-75
2022/04/07 10:22:31;;;;;;;1.40;0.80;;;;;;;;;;5007568;28;20035;-74
2022/04/07 10:25:03;;;;;;;0.30;0.30;;;;;;;;;;5002206;28;20113;-75
2022/04/07 10:27:52;;;;;;;0.50;0.50;;;;;;;;;;5002958;28;20080;-74
2022/04/07 10:30:19;;;;;;;2.03;0.68;;;;;;;;;;4987387;28;20561;-74
2022/04/07 10:32:46;;;;;;;1.90;0.82;;;;;;;;;;4993583;28;20034;-73
2022/04/07 10:35:36;;;;;;;0.93;0.40;;;;;;;;;;5010245;28;20034;-74
2022/04/07 10:38:31;;;;;;;2.97;0.95;;;;;;;;;;5002066;28;20026;-73
2022/04/07 10:41:01;;;;;;;2.20;0.88;;;;;;;;;;4990568;28;20104;-75
2022/04/07 10:43:31;;;;;;;0.75;0.50;;;;;;;;;;4990383;28;20491;-73
2022/04/07 10:46:25;;;;;;;5.68;1.17;;;;;;;;;;4992763;28;20042;-72
2022/04/07 10:49:03;;;;;;;1.90;0.50;;;;;;;;;;4987101;28;20056;-73
2022/04/07 10:51:47;;;;;;;1.95;0.57;;;;;;;;;;4998974;28;20168;-73
2022/04/07 10:54:14;;;;;;;0.40;0.40;;;;;;;;;;5005723;28;20084;-73
2022/04/07 10:56:51;;;;;;;3.63;0.60;;;;;;;;;;5002696;28;20037;-73
2022/04/07 10:59:31;;;;;;;0.38;0.30;;;;;;;;;;4991495;28;20100;-74
2022/04/07 11:02:05;;;;;;;0.50;0.50;;;;;;;;;;5009227;28;20045;-74
2022/04/07 11:04:35;;;;;;;2.60;0.40;;;;;;;;;;5009723;28;20030;-74
2022/04/07 11:07:13;;;;;;;3.92;0.40;;;;;;;;;;4986658;28;20585;-74
2022/04/07 11:10:11;;;;;;;1.25;0.50;;;;;;;;;;4991630;28;20648;-72
2022/04/07 11:12:46;;;;;;;0.47;0.40;;;;;;;;;;5006524;28;20034;-74
2022/04/07 11:15:45;;;;;;;4.00;0.50;;;;;;;;;;5013589;28;20121;-72
2022/04/07 11:18:40;;;;;;;1.35;0.68;;;;;;;;;;5009189;28;20060;-74
2022/04/07 11:21:11;;;;;;;0.68;0.32;;;;;;;;;;5005418;28;20171;-72
2022/04/07 11:23:44;;;;;;;2.90;0.50;;;;;;;;;;4997445;28;20057;-74
2022/04/07 11:26:12;;;;;;;0.50;0.38;;;;;;;;;;5005954;28;20030;-74
2022/04/07 11:28:39;;;;;;;2.13;0.60;;;;;;;;;;4987697;28;20743;-73
2022/04/07 11:31:07;;;;;;;2.78;0.40;;;;;;;;;;4991646;28;20034;-73
2022/04/07 11:33:39;;;;;;;5.45;0.40;;;;;;;;;;5009032;28;20026;-74
2022/04/07 11:36:11;;;;;;;2.33;0.50;;;;;;;;;;4994368;28;20068;-74
2022/04/07 11:38:54;;;;;;;4.07;0.32;;;;;;;;;;4987634;28;20069;-74
2022/04/07 11:41:21;;;;;;;1.13;0.32;;;;;;;;;;5000078;28;20037;-74
2022/04/07 11:43:48;;;;;;;0.60;0.45;;;;;;;;;;4991143;28;20478;-73
2022/04/07 11:46:24;;;;;;;9.40;0.80;;;;;;;;;;5007466;28;20041;-76
2022/04/07 11:48:55;;;;;;;3.60;0.75;;;;;;;;;;4986130;28;20045;-74
2022/04/07 11:51:23;;;;;;;;;;;;;;;;;;5007059;28;20030;-74
2022/04/07 11:53:53;;;;;;;2.05;0.30;;;;;;;;;;4992499;28;19917;-73
2022/04/07 11:56:27;;;;;;;0.22;0.20;;;;;;;;;;5001892;28;20025;-73
2022/04/07 11:58:59;;;;;;;1.25;0.45;;;;;;;;;;4987571;28;20057;-72
2022/04/07 12:01:28;;;;;;;0.98;0.50;;;;;;;;;;5003589;28;20065;-72
2022/04/07 12:04:00;;;;;;;1.10;0.40;;;;;;;;;;4992669;28;20034;-73
2022/04/07 12:06:35;;;;;;;0.30;0.30;;;;;;;;;;5005187;28;20034;-74
2022/04/07 12:09:03;;;;;;;3.28;0.50;;;;;;;;;;4990415;28;20026;-73
2022/04/07 12:11:30;;;;;;;0.30;0.30;;;;;;;;;;4996360;28;20443;-72
2022/04/07 12:14:03;;;;;;;4.07;0.68;;;;;;;;;;5006727;28;20474;-72
2022/04/07 12:16:30;;;;;;;1.05;0.50;;;;;;;;;;5014164;28;20132;-74
2022/04/07 12:19:02;;;;;;;0.50;0.40;;;;;;;;;;5004745;28;20046;-75
2022/04/07 12:21:29;;;;;;;1.55;0.20;;;;;;;;;;5008385;28;20030;-73
2022/04/07 12:24:28;;;;;;;1.85;0.30;;;;;;;;;;5012253;28;20029;-74
2022/04/07 12:26:58;;;;;;;2.05;0.20;;;;;;;;;;5006576;28;20488;-72
2022/04/07 12:29:34;;;;;;;0.30;0.30;;;;;;;;;;4992864;28;20118;-73
2022/04/07 12:32:09;;;;;;;3.72;0.40;;;;;;;;;;5010216;28;20533;-72
2022/04/07 12:34:57;;;;;;;3.88;0.63;;;;;;;;;;5008774;28;20030;-74
2022/04/07 12:37:30;;;;;;;0.63;0.30;;;;;;;;;;4994619;28;20053;-73
2022/04/07 12:39:56;;;;;;;0.80;0.35;;;;;;;;;;5010765;28;20453;-72
2022/04/07 12:42:23;;;;;;;0.70;0.52;;;;;;;;;;4998092;28;20029;-72
2022/04/07 12:44:49;;;;;;;1.63;0.50;;;;;;;;;;5012927;28;20030;-70
2022/04/07 12:47:17;;;;;;;3.05;0.47;;;;;;;;;;4996622;28;20026;-72
2022/04/07 12:49:56;;;;;;;2.60;0.22;;;;;;;;;;4999570;28;20129;-73
2022/04/07 12:52:44;;;;;;;0.40;0.40;;;;;;;;;;5014834;28;20720;-74
2022/04/07 12:55:15;;;;;;;6.63;0.60;;;;;;;;;;5013483;28;20034;-75
2022/04/07 12:57:42;;;;;;;1.75;0.50;;;;;;;;;;4989116;28;20037;-73
2022/04/07 13:00:21;;;;;;;14.43;1.00;;;;;;;;;;5007637;28;20053;-74
2022/04/07 13:02:56;;;;;;;1.33;0.30;;;;;;;;;;5016765;28;20037;-75
2022/04/07 13:05:28;;;;;;;1.65;0.38;;;;;;;;;;5007371;28;20118;-73
2022/04/07 13:07:56;;;;;;;2.53;0.40;;;;;;;;;;5005841;28;20469;-74
2022/04/07 13:10:23;;;;;;;1.00;0.20;;;;;;;;;;5020259;28;20052;-75
2022/04/07 13:12:48;;;;;;;3.88;0.30;;;;;;;;;;5007278;28;20025;-71
2022/04/07 13:15:16;;;;;;;2.25;0.35;;;;;;;;;;5003764;28;20036;-74
2022/04/07 13:17:44;;;;;;;2.22;0.40;;;;;;;;;;4999935;28;20104;-74
2022/04/07 13:20:10;;;;;;;0.93;0.30;;;;;;;;;;5005191;28;20050;-74
2022/04/07 13:22:36;;;;;;;0.57;0.32;;;;;;;;;;5004114;28;20045;-72
2022/04/07 13:25:03;;;;;;;4.30;0.70;;;;;;;;;;4999325;28;20030;-74
2022/04/07 13:27:29;;;;;;;3.88;0.60;;;;;;;;;;5000775;28;20153;-75
2022/04/07 13:29:57;;;;;;;1.73;0.68;;;;;;;;;;4995611;28;20047;-73
2022/04/07 13:32:27;;;;;;;0.25;0.20;;;;;;;;;;5017966;28;20033;-74
2022/04/07 13:34:53;;;;;;;1.95;0.30;;;;;;;;;;5003609;28;20476;-74
2022/04/07 13:37:21;;;;;;;2.97;0.30;;;;;;;;;;4997393;28;20442;-75
2022/04/07 13:39:46;;;;;;;1.55;0.30;;;;;;;;;;5019673;28;20033;-73
2022/04/07 13:42:13;;;;;;;2.17;0.38;;;;;;;;;;4998919;28;20048;-72
2022/04/07 13:44:39;;;;;;;1.33;0.40;;;;;;;;;;5006936;28;20038;-74
2022/04/07 13:47:07;;;;;;;3.08;0.85;;;;;;;;;;4998634;28;20557;-73
2022/04/07 13:49:33;;;;;;;3.25;0.40;;;;;;;;;;5003034;28;20108;-74
2022/04/07 13:52:00;;;;;;;0.63;0.35;;;;;;;;;;5017917;28;20026;-74
2022/04/07 13:54:27;;;;;;;1.55;0.40;;;;;;;;;;4997476;28;20033;-75
2022/04/07 13:56:53;;;;;;;4.25;0.43;;;;;;;;;;5011089;28;20041;-75
2022/04/07 13:59:19;;;;;;;0.40;0.30;;;;;;;;;;5010082;28;20030;-75
2022/04/07 14:01:45;;;;;;;1.88;0.63;;;;;;;;;;5001989;28;20034;-74
2022/04/07 14:04:10;;;;;;;1.05;0.30;;;;;;;;;;4996096;28;20351;-73
2022/04/07 14:06:38;;;;;;;0.22;0.20;;;;;;;;;;5012394;28;20076;-75
2022/04/07 14:09:11;;;;;;;2.50;0.20;;;;;;;;;;4995060;28;20410;-74
2022/04/07 14:11:37;;;;;;;0.70;0.38;;;;;;;;;;5020930;28;20389;-75
2022/04/07 14:14:04;;;;;;;0.28;0.20;;;;;;;;;;5018999;28;20025;-74
2022/04/07 14:16:30;;;;;;;0.82;0.40;;;;;;;;;;4999702;28;21461;-73
2022/04/07 14:18:55;;;;;;;3.58;0.50;;;;;;;;;;4990631;28;20064;-74
2022/04/07 14:21:21;;;;;;;0.85;0.40;;;;;;;;;;5015372;28;20038;-74
2022/04/07 14:23:55;;;;;;;1.20;0.55;;;;;;;;;;4995084;28;20045;-76
2022/04/07 14:26:25;;;;;;;3.40;0.50;;;;;;;;;;4999064;28;20379;-76
2022/04/07 14:28:51;;;;;;;2.80;0.60;;;;;;;;;;5008390;28;20060;-76
2022/04/07 14:31:20;;;;;;;4.00;0.30;;;;;;;;;;5001212;28;20033;-74
2022/04/07 14:33:46;;;;;;;1.65;0.20;;;;;;;;;;5023904;28;20627;-74
2022/04/07 14:36:12;;;;;;;0.35;0.35;;;;;;;;;;5024763;28;20044;-75
2022/04/07 14:38:38;;;;;;;0.77;0.30;;;;;;;;;;5022841;28;20057;-73
2022/04/07 14:41:05;;;;;;;4.80;0.50;;;;;;;;;;5024682;28;20026;-74
2022/04/07 14:43:31;;;;;;;0.50;0.30;;;;;;;;;;5023716;28;20170;-75
2022/04/07 14:45:57;;;;;;;1.13;0.30;;;;;;;;;;5023691;28;20026;-74
2022/04/07 14:48:22;;;;;;;0.50;0.25;;;;;;;;;;5007430;28;20041;-75
2022/04/07 14:50:48;;;;;;;1.40;0.55;;;;;;;;;;5008130;28;20400;-74